Aérodrome :
LOGIN :

S'inscrire | Disclaimer

   EN    FR    IT 

 










Légende :    VFR   VFR Marginal   IFR   IFR Intensif   IFR Très Intensif
Visi : 
Plafond : 
>= 8 km
>= 3000ft
5 à 8 km
1000 à 3000 ft
1500m à 5 km
500 à 1000 ft
800 à 1500m
200 à 500 ft
< 800m
< 200 ft
Symboles :   Orages  Brouillard  Fortes neiges  Fortes précipitations  Vent > 20 kt
SIGMETs :   Divers  Orages  Givrage  Turbulence  Onde Orograph.  Cendres Volcan.







- Altitude de l'aérodrome : 17 ft
- Code IATA : GRQ


EHGG - Groningen Eelde

DERNIER METAR :
  • 190755Z AUTO 34003KT 310V040 5000 BR NSC 17/14 Q1006 BECMG 8000 NSW

METARs EXPIRÉS :
  • 190725Z AUTO 04003KT 340V080 5000 BR NSC 16/13 Q1006 BECMG 6000 NSW
  • 190655Z AUTO 04004KT 360V080 3200 BR NSC 15/13 Q1006 BECMG 6000 NSW
  • 190625Z AUTO 04006KT 010V070 2900 BR FEW004 SCT005 14/13 Q1006 BECMG 6000 NSW
  • 190555Z AUTO VRB02KT 1300 R23/1500U BR NSC 13/13 Q1006 BECMG 6000 NSW
  • 190525Z AUTO VRB02KT 1200 R05/0200N BR BKN001 13/12 Q1006 BECMG 0400 BKN002

TAF TAF EHGG
Valide du 19 à 06h jusqu'au 20 à 12h UTC


190456Z 1906/2012 36006KT 0100 FG VV001
BECMG 1906/1908 1500 BR BKN005
BECMG 1908/1910 CAVOK
PROB40
TEMPO 1914/1920 03015G25KT 4000 SHRA TSRA FEW030CB
BECMG 1923/2001 4000 BR
PROB40 2001/2008 1200 BKN002
BECMG 2007/2010 9999 NSW SCT025
Pas de NOTAMs connus pour ce terrain.



MET'MAP, la Météo Aéronautique d'un coup d'oeil ! - Copyright ORBIFLY Décembre 2007 - Disclaimer

ORBIFLY MET'MAP TEAM :

Programmation & Développement : Alexandra Zaïnal
Conception & Développement : Baudouin d'Aumeries
Co-Programmation & Développement : Marc-Olivier Méhu
Soutien technique & logistique : Manuel Goepfert

Contact : metmap@orbifly.com




SOURCES & CREDITS :

   NOAA